sensor_id;sensor_type;location;lat;lon;timestamp;temperature;humidity
39847;DHT22;25517;52.422;10.782;2023-10-31T00:01:08;12.20;99.90
39847;DHT22;25517;52.422;10.782;2023-10-31T00:03:34;12.20;99.90
39847;DHT22;25517;52.422;10.782;2023-10-31T00:05:59;12.20;99.90
39847;DHT22;25517;52.422;10.782;2023-10-31T00:08:25;12.20;99.90
39847;DHT22;25517;52.422;10.782;2023-10-31T00:10:50;12.20;99.90
39847;DHT22;25517;52.422;10.782;2023-10-31T00:13:16;12.20;99.90
39847;DHT22;25517;52.422;10.782;2023-10-31T00:15:42;12.20;99.90
39847;DHT22;25517;52.422;10.782;2023-10-31T00:18:07;12.30;99.90
39847;DHT22;25517;52.422;10.782;2023-10-31T00:20:33;12.20;99.90
39847;DHT22;25517;52.422;10.782;2023-10-31T00:22:58;12.20;99.90
39847;DHT22;25517;52.422;10.782;2023-10-31T00:25:24;12.20;99.90
39847;DHT22;25517;52.422;10.782;2023-10-31T00:27:50;12.20;99.90
39847;DHT22;25517;52.422;10.782;2023-10-31T00:30:15;12.20;99.90
39847;DHT22;25517;52.422;10.782;2023-10-31T00:32:41;12.20;99.90
39847;DHT22;25517;52.422;10.782;2023-10-31T00:35:07;12.20;99.90
39847;DHT22;25517;52.422;10.782;2023-10-31T00:37:32;12.20;99.90
39847;DHT22;25517;52.422;10.782;2023-10-31T00:39:58;12.30;99.90
39847;DHT22;25517;52.422;10.782;2023-10-31T00:42:23;12.30;99.90
39847;DHT22;25517;52.422;10.782;2023-10-31T00:44:49;12.20;99.90
39847;DHT22;25517;52.422;10.782;2023-10-31T00:47:14;12.30;99.90
39847;DHT22;25517;52.422;10.782;2023-10-31T00:49:40;12.30;99.90
39847;DHT22;25517;52.422;10.782;2023-10-31T00:52:06;12.20;99.90
39847;DHT22;25517;52.422;10.782;2023-10-31T00:54:32;12.20;99.90
39847;DHT22;25517;52.422;10.782;2023-10-31T00:56:57;12.20;99.90
39847;DHT22;25517;52.422;10.782;2023-10-31T00:59:23;12.20;99.90
39847;DHT22;25517;52.422;10.782;2023-10-31T01:01:49;12.20;99.90
39847;DHT22;25517;52.422;10.782;2023-10-31T01:04:14;12.20;99.90
39847;DHT22;25517;52.422;10.782;2023-10-31T01:06:41;12.20;99.90
39847;DHT22;25517;52.422;10.782;2023-10-31T01:09:07;12.20;99.90
39847;DHT22;25517;52.422;10.782;2023-10-31T01:11:32;12.20;99.90
39847;DHT22;25517;52.422;10.782;2023-10-31T01:13:58;12.20;99.90
39847;DHT22;25517;52.422;10.782;2023-10-31T01:16:23;12.20;99.90
39847;DHT22;25517;52.422;10.782;2023-10-31T01:18:49;12.20;99.90
39847;DHT22;25517;52.422;10.782;2023-10-31T01:21:14;12.20;99.90
39847;DHT22;25517;52.422;10.782;2023-10-31T01:23:40;12.20;99.90
39847;DHT22;25517;52.422;10.782;2023-10-31T01:26:06;12.30;99.90
39847;DHT22;25517;52.422;10.782;2023-10-31T01:28:31;12.30;99.90
39847;DHT22;25517;52.422;10.782;2023-10-31T01:30:57;12.30;99.90
39847;DHT22;25517;52.422;10.782;2023-10-31T01:33:22;12.30;99.90
39847;DHT22;25517;52.422;10.782;2023-10-31T01:35:47;12.30;99.90
39847;DHT22;25517;52.422;10.782;2023-10-31T01:38:13;12.30;99.90
39847;DHT22;25517;52.422;10.782;2023-10-31T01:40:39;12.30;99.90
39847;DHT22;25517;52.422;10.782;2023-10-31T01:43:05;12.30;99.90
39847;DHT22;25517;52.422;10.782;2023-10-31T01:45:30;12.30;99.90
39847;DHT22;25517;52.422;10.782;2023-10-31T01:47:56;12.30;99.90
39847;DHT22;25517;52.422;10.782;2023-10-31T01:50:21;12.30;99.90
39847;DHT22;25517;52.422;10.782;2023-10-31T01:52:47;12.30;99.90
39847;DHT22;25517;52.422;10.782;2023-10-31T01:55:13;12.30;99.90
39847;DHT22;25517;52.422;10.782;2023-10-31T01:57:40;12.30;99.90
39847;DHT22;25517;52.422;10.782;2023-10-31T02:00:06;12.30;99.90
39847;DHT22;25517;52.422;10.782;2023-10-31T02:02:33;12.30;99.90
39847;DHT22;25517;52.422;10.782;2023-10-31T02:05:00;12.30;99.90
39847;DHT22;25517;52.422;10.782;2023-10-31T02:07:25;12.30;99.90
39847;DHT22;25517;52.422;10.782;2023-10-31T02:09:52;12.30;99.90
39847;DHT22;25517;52.422;10.782;2023-10-31T02:12:34;12.30;99.90
39847;DHT22;25517;52.422;10.782;2023-10-31T02:15:00;12.30;99.90
39847;DHT22;25517;52.422;10.782;2023-10-31T02:17:26;12.20;99.90
39847;DHT22;25517;52.422;10.782;2023-10-31T02:19:52;12.20;99.90
39847;DHT22;25517;52.422;10.782;2023-10-31T02:22:17;12.20;99.90
39847;DHT22;25517;52.422;10.782;2023-10-31T02:24:43;12.20;99.90
39847;DHT22;25517;52.422;10.782;2023-10-31T02:27:08;12.20;99.90
39847;DHT22;25517;52.422;10.782;2023-10-31T02:29:34;12.20;99.90
39847;DHT22;25517;52.422;10.782;2023-10-31T02:31:59;12.20;99.90
39847;DHT22;25517;52.422;10.782;2023-10-31T02:34:25;12.20;99.90
39847;DHT22;25517;52.422;10.782;2023-10-31T02:36:51;12.20;99.90
39847;DHT22;25517;52.422;10.782;2023-10-31T02:39:17;12.20;99.90
39847;DHT22;25517;52.422;10.782;2023-10-31T02:41:43;12.20;99.90
39847;DHT22;25517;52.422;10.782;2023-10-31T02:44:09;12.20;99.90
39847;DHT22;25517;52.422;10.782;2023-10-31T02:46:38;12.10;99.90
39847;DHT22;25517;52.422;10.782;2023-10-31T02:49:03;12.10;99.90
39847;DHT22;25517;52.422;10.782;2023-10-31T02:51:29;12.10;99.90
39847;DHT22;25517;52.422;10.782;2023-10-31T02:53:54;12.10;99.90
39847;DHT22;25517;52.422;10.782;2023-10-31T02:56:21;12.10;99.90
39847;DHT22;25517;52.422;10.782;2023-10-31T02:58:46;12.10;99.90
39847;DHT22;25517;52.422;10.782;2023-10-31T03:01:12;12.10;99.90
39847;DHT22;25517;52.422;10.782;2023-10-31T03:03:37;12.00;99.90
39847;DHT22;25517;52.422;10.782;2023-10-31T03:06:05;12.00;99.90
39847;DHT22;25517;52.422;10.782;2023-10-31T03:08:30;12.00;99.90
39847;DHT22;25517;52.422;10.782;2023-10-31T03:10:56;12.00;99.90
39847;DHT22;25517;52.422;10.782;2023-10-31T03:13:21;11.90;99.90
39847;DHT22;25517;52.422;10.782;2023-10-31T03:15:48;11.90;99.90
39847;DHT22;25517;52.422;10.782;2023-10-31T03:18:14;11.90;99.90
39847;DHT22;25517;52.422;10.782;2023-10-31T03:20:40;11.90;99.90
39847;DHT22;25517;52.422;10.782;2023-10-31T03:23:05;11.90;99.90
39847;DHT22;25517;52.422;10.782;2023-10-31T03:25:31;11.90;99.90
39847;DHT22;25517;52.422;10.782;2023-10-31T03:27:56;11.90;99.90
39847;DHT22;25517;52.422;10.782;2023-10-31T03:30:22;11.90;99.90
39847;DHT22;25517;52.422;10.782;2023-10-31T03:32:47;11.90;99.90
39847;DHT22;25517;52.422;10.782;2023-10-31T03:35:14;11.90;99.90
39847;DHT22;25517;52.422;10.782;2023-10-31T03:37:39;11.90;99.90
39847;DHT22;25517;52.422;10.782;2023-10-31T03:40:09;11.90;99.90
39847;DHT22;25517;52.422;10.782;2023-10-31T03:42:34;11.90;99.90
39847;DHT22;25517;52.422;10.782;2023-10-31T03:45:00;11.90;99.90
39847;DHT22;25517;52.422;10.782;2023-10-31T03:47:26;11.90;99.90
39847;DHT22;25517;52.422;10.782;2023-10-31T03:49:51;11.90;99.90
39847;DHT22;25517;52.422;10.782;2023-10-31T03:52:17;11.90;99.90
39847;DHT22;25517;52.422;10.782;2023-10-31T03:54:43;11.90;99.90
39847;DHT22;25517;52.422;10.782;2023-10-31T03:57:10;11.90;99.90
39847;DHT22;25517;52.422;10.782;2023-10-31T03:59:37;11.90;99.90
39847;DHT22;25517;52.422;10.782;2023-10-31T04:02:03;12.00;99.90
39847;DHT22;25517;52.422;10.782;2023-10-31T04:04:28;12.00;99.90
39847;DHT22;25517;52.422;10.782;2023-10-31T04:06:54;12.00;99.90
39847;DHT22;25517;52.422;10.782;2023-10-31T04:09:19;12.00;99.90
39847;DHT22;25517;52.422;10.782;2023-10-31T04:11:45;12.00;99.90
39847;DHT22;25517;52.422;10.782;2023-10-31T04:14:10;12.00;99.90
39847;DHT22;25517;52.422;10.782;2023-10-31T04:16:41;12.00;99.90
39847;DHT22;25517;52.422;10.782;2023-10-31T04:19:13;12.00;99.90
39847;DHT22;25517;52.422;10.782;2023-10-31T04:21:39;12.00;99.90
39847;DHT22;25517;52.422;10.782;2023-10-31T04:24:05;12.10;99.90
39847;DHT22;25517;52.422;10.782;2023-10-31T04:26:31;12.00;99.90
39847;DHT22;25517;52.422;10.782;2023-10-31T04:28:56;12.00;99.90
39847;DHT22;25517;52.422;10.782;2023-10-31T04:31:22;12.00;99.90
39847;DHT22;25517;52.422;10.782;2023-10-31T04:33:47;12.10;99.90
39847;DHT22;25517;52.422;10.782;2023-10-31T04:36:13;12.10;99.90
39847;DHT22;25517;52.422;10.782;2023-10-31T04:38:38;12.10;99.90
39847;DHT22;25517;52.422;10.782;2023-10-31T04:41:04;12.10;99.90
39847;DHT22;25517;52.422;10.782;2023-10-31T04:43:29;12.00;99.90
39847;DHT22;25517;52.422;10.782;2023-10-31T04:45:55;12.00;99.90
39847;DHT22;25517;52.422;10.782;2023-10-31T04:48:20;11.90;99.90
39847;DHT22;25517;52.422;10.782;2023-10-31T04:50:46;11.90;99.90
39847;DHT22;25517;52.422;10.782;2023-10-31T04:53:11;11.60;99.90
39847;DHT22;25517;52.422;10.782;2023-10-31T04:55:37;11.40;99.90
39847;DHT22;25517;52.422;10.782;2023-10-31T04:58:02;11.20;99.90
39847;DHT22;25517;52.422;10.782;2023-10-31T05:00:28;11.10;99.90
39847;DHT22;25517;52.422;10.782;2023-10-31T05:02:53;11.10;99.90
39847;DHT22;25517;52.422;10.782;2023-10-31T05:05:19;11.00;99.90
39847;DHT22;25517;52.422;10.782;2023-10-31T05:07:45;10.90;99.90
39847;DHT22;25517;52.422;10.782;2023-10-31T05:10:10;10.90;99.90
39847;DHT22;25517;52.422;10.782;2023-10-31T05:12:36;10.80;99.90
39847;DHT22;25517;52.422;10.782;2023-10-31T05:15:02;10.70;99.90
39847;DHT22;25517;52.422;10.782;2023-10-31T05:17:28;10.70;99.90
39847;DHT22;25517;52.422;10.782;2023-10-31T05:19:53;10.70;99.90
39847;DHT22;25517;52.422;10.782;2023-10-31T05:22:19;10.70;99.90
39847;DHT22;25517;52.422;10.782;2023-10-31T05:24:44;10.60;99.90
39847;DHT22;25517;52.422;10.782;2023-10-31T05:27:10;10.60;99.90
39847;DHT22;25517;52.422;10.782;2023-10-31T05:29:36;10.60;99.90
39847;DHT22;25517;52.422;10.782;2023-10-31T05:32:03;10.60;99.90
39847;DHT22;25517;52.422;10.782;2023-10-31T05:34:29;10.60;99.90
39847;DHT22;25517;52.422;10.782;2023-10-31T05:36:54;10.60;99.90
39847;DHT22;25517;52.422;10.782;2023-10-31T05:39:20;10.50;99.90
39847;DHT22;25517;52.422;10.782;2023-10-31T05:41:45;10.60;99.90
39847;DHT22;25517;52.422;10.782;2023-10-31T05:44:11;10.50;99.90
39847;DHT22;25517;52.422;10.782;2023-10-31T05:46:39;10.50;99.90
39847;DHT22;25517;52.422;10.782;2023-10-31T05:49:07;10.50;99.90
39847;DHT22;25517;52.422;10.782;2023-10-31T05:51:33;10.50;99.90
39847;DHT22;25517;52.422;10.782;2023-10-31T05:53:59;10.40;99.90
39847;DHT22;25517;52.422;10.782;2023-10-31T05:56:25;10.50;99.90
39847;DHT22;25517;52.422;10.782;2023-10-31T05:58:50;10.50;99.90
39847;DHT22;25517;52.422;10.782;2023-10-31T06:01:16;10.70;99.90
39847;DHT22;25517;52.422;10.782;2023-10-31T06:03:42;10.80;99.90
39847;DHT22;25517;52.422;10.782;2023-10-31T06:06:08;10.90;99.90
39847;DHT22;25517;52.422;10.782;2023-10-31T06:08:34;11.00;99.90
39847;DHT22;25517;52.422;10.782;2023-10-31T06:11:00;11.00;99.90
39847;DHT22;25517;52.422;10.782;2023-10-31T06:13:26;11.10;99.90
39847;DHT22;25517;52.422;10.782;2023-10-31T06:15:53;11.00;99.90
39847;DHT22;25517;52.422;10.782;2023-10-31T06:18:19;11.10;99.90
39847;DHT22;25517;52.422;10.782;2023-10-31T06:20:45;11.10;99.90
39847;DHT22;25517;52.422;10.782;2023-10-31T06:23:10;11.10;99.90
39847;DHT22;25517;52.422;10.782;2023-10-31T06:25:36;11.10;99.90
39847;DHT22;25517;52.422;10.782;2023-10-31T06:28:01;11.10;99.90
39847;DHT22;25517;52.422;10.782;2023-10-31T06:30:27;11.10;99.90
39847;DHT22;25517;52.422;10.782;2023-10-31T06:32:55;11.10;99.90
39847;DHT22;25517;52.422;10.782;2023-10-31T06:35:22;11.10;99.90
39847;DHT22;25517;52.422;10.782;2023-10-31T06:37:50;11.10;99.90
39847;DHT22;25517;52.422;10.782;2023-10-31T06:40:16;11.10;99.90
39847;DHT22;25517;52.422;10.782;2023-10-31T06:42:41;11.10;99.90
39847;DHT22;25517;52.422;10.782;2023-10-31T06:45:07;11.10;99.90
39847;DHT22;25517;52.422;10.782;2023-10-31T06:47:33;11.10;99.90
39847;DHT22;25517;52.422;10.782;2023-10-31T06:49:58;11.10;99.90
39847;DHT22;25517;52.422;10.782;2023-10-31T06:52:24;11.10;99.90
39847;DHT22;25517;52.422;10.782;2023-10-31T06:54:49;11.20;99.90
39847;DHT22;25517;52.422;10.782;2023-10-31T06:57:15;11.10;99.90
39847;DHT22;25517;52.422;10.782;2023-10-31T06:59:41;11.10;99.90
39847;DHT22;25517;52.422;10.782;2023-10-31T07:02:07;11.10;99.90
39847;DHT22;25517;52.422;10.782;2023-10-31T07:04:32;11.10;99.90
39847;DHT22;25517;52.422;10.782;2023-10-31T07:06:58;11.20;99.90
39847;DHT22;25517;52.422;10.782;2023-10-31T07:09:24;11.10;99.90
39847;DHT22;25517;52.422;10.782;2023-10-31T07:11:51;11.20;99.90
39847;DHT22;25517;52.422;10.782;2023-10-31T07:14:16;11.20;99.90
39847;DHT22;25517;52.422;10.782;2023-10-31T07:16:42;11.10;99.90
39847;DHT22;25517;52.422;10.782;2023-10-31T07:19:10;11.10;99.90
39847;DHT22;25517;52.422;10.782;2023-10-31T07:21:35;11.20;99.90
39847;DHT22;25517;52.422;10.782;2023-10-31T07:24:01;11.20;99.90
39847;DHT22;25517;52.422;10.782;2023-10-31T07:26:27;11.20;99.90
39847;DHT22;25517;52.422;10.782;2023-10-31T07:28:53;11.20;99.90
39847;DHT22;25517;52.422;10.782;2023-10-31T07:31:18;11.20;99.90
39847;DHT22;25517;52.422;10.782;2023-10-31T07:33:44;11.20;99.90
39847;DHT22;25517;52.422;10.782;2023-10-31T07:36:10;11.30;99.90
39847;DHT22;25517;52.422;10.782;2023-10-31T07:38:36;11.20;99.90
39847;DHT22;25517;52.422;10.782;2023-10-31T07:41:02;11.20;99.90
39847;DHT22;25517;52.422;10.782;2023-10-31T07:43:27;11.20;99.90
39847;DHT22;25517;52.422;10.782;2023-10-31T07:45:53;11.20;99.90
39847;DHT22;25517;52.422;10.782;2023-10-31T07:48:18;11.20;99.90
39847;DHT22;25517;52.422;10.782;2023-10-31T07:50:44;11.20;99.90
39847;DHT22;25517;52.422;10.782;2023-10-31T07:53:09;11.10;99.90
39847;DHT22;25517;52.422;10.782;2023-10-31T07:55:35;11.10;99.90
39847;DHT22;25517;52.422;10.782;2023-10-31T07:58:00;11.10;99.90
39847;DHT22;25517;52.422;10.782;2023-10-31T08:00:26;11.10;99.90
39847;DHT22;25517;52.422;10.782;2023-10-31T08:02:51;11.10;99.90
39847;DHT22;25517;52.422;10.782;2023-10-31T08:05:17;11.10;99.90
39847;DHT22;25517;52.422;10.782;2023-10-31T08:07:43;11.20;99.90
39847;DHT22;25517;52.422;10.782;2023-10-31T08:10:08;11.20;99.90
39847;DHT22;25517;52.422;10.782;2023-10-31T08:12:34;11.20;99.90
39847;DHT22;25517;52.422;10.782;2023-10-31T08:15:01;11.20;99.90
39847;DHT22;25517;52.422;10.782;2023-10-31T08:17:26;11.20;99.90
39847;DHT22;25517;52.422;10.782;2023-10-31T08:19:52;11.30;99.90
39847;DHT22;25517;52.422;10.782;2023-10-31T08:22:17;11.40;99.90
39847;DHT22;25517;52.422;10.782;2023-10-31T08:24:43;11.50;99.90
39847;DHT22;25517;52.422;10.782;2023-10-31T08:27:09;11.40;99.90
39847;DHT22;25517;52.422;10.782;2023-10-31T08:29:35;11.50;99.90
39847;DHT22;25517;52.422;10.782;2023-10-31T08:32:01;11.60;99.90
39847;DHT22;25517;52.422;10.782;2023-10-31T08:34:26;11.60;99.90
39847;DHT22;25517;52.422;10.782;2023-10-31T08:36:52;11.60;99.90
39847;DHT22;25517;52.422;10.782;2023-10-31T08:39:18;11.70;99.90
39847;DHT22;25517;52.422;10.782;2023-10-31T08:41:57;11.70;99.90
39847;DHT22;25517;52.422;10.782;2023-10-31T08:44:23;11.70;99.90
39847;DHT22;25517;52.422;10.782;2023-10-31T08:46:49;11.70;99.90
39847;DHT22;25517;52.422;10.782;2023-10-31T08:49:15;11.50;99.90
39847;DHT22;25517;52.422;10.782;2023-10-31T08:51:41;11.50;99.90
39847;DHT22;25517;52.422;10.782;2023-10-31T08:54:07;11.50;99.90
39847;DHT22;25517;52.422;10.782;2023-10-31T08:56:32;11.50;99.90
39847;DHT22;25517;52.422;10.782;2023-10-31T08:58:58;11.50;99.90
39847;DHT22;25517;52.422;10.782;2023-10-31T09:01:23;11.50;99.90
39847;DHT22;25517;52.422;10.782;2023-10-31T09:03:49;11.50;99.90
39847;DHT22;25517;52.422;10.782;2023-10-31T09:06:15;11.40;99.90
39847;DHT22;25517;52.422;10.782;2023-10-31T09:08:40;11.40;99.90
39847;DHT22;25517;52.422;10.782;2023-10-31T09:11:06;11.40;99.90
39847;DHT22;25517;52.422;10.782;2023-10-31T09:13:32;11.40;99.90
39847;DHT22;25517;52.422;10.782;2023-10-31T09:16:01;11.50;99.90
39847;DHT22;25517;52.422;10.782;2023-10-31T09:18:27;11.70;99.90
39847;DHT22;25517;52.422;10.782;2023-10-31T09:20:53;11.90;99.90
39847;DHT22;25517;52.422;10.782;2023-10-31T09:23:18;12.10;99.90
39847;DHT22;25517;52.422;10.782;2023-10-31T09:25:44;12.60;99.90
39847;DHT22;25517;52.422;10.782;2023-10-31T09:28:10;13.10;99.90
39847;DHT22;25517;52.422;10.782;2023-10-31T09:30:36;13.40;99.90
39847;DHT22;25517;52.422;10.782;2023-10-31T09:33:01;13.40;99.90
39847;DHT22;25517;52.422;10.782;2023-10-31T09:35:27;13.60;99.90
39847;DHT22;25517;52.422;10.782;2023-10-31T09:37:53;13.70;99.90
39847;DHT22;25517;52.422;10.782;2023-10-31T09:40:20;13.50;99.90
39847;DHT22;25517;52.422;10.782;2023-10-31T09:42:46;13.40;99.90
39847;DHT22;25517;52.422;10.782;2023-10-31T09:45:12;13.10;99.90
39847;DHT22;25517;52.422;10.782;2023-10-31T09:47:38;13.30;99.90
39847;DHT22;25517;52.422;10.782;2023-10-31T09:50:05;13.60;99.90
39847;DHT22;25517;52.422;10.782;2023-10-31T09:52:30;13.80;99.90
39847;DHT22;25517;52.422;10.782;2023-10-31T09:54:56;13.70;99.90
39847;DHT22;25517;52.422;10.782;2023-10-31T09:57:22;14.10;99.90
39847;DHT22;25517;52.422;10.782;2023-10-31T09:59:47;15.30;99.90
39847;DHT22;25517;52.422;10.782;2023-10-31T10:02:13;16.30;99.90
39847;DHT22;25517;52.422;10.782;2023-10-31T10:04:39;16.50;99.90
39847;DHT22;25517;52.422;10.782;2023-10-31T10:07:05;16.50;99.90
39847;DHT22;25517;52.422;10.782;2023-10-31T10:09:31;16.10;99.90
39847;DHT22;25517;52.422;10.782;2023-10-31T10:12:00;15.30;99.90
39847;DHT22;25517;52.422;10.782;2023-10-31T10:14:27;14.70;99.90
39847;DHT22;25517;52.422;10.782;2023-10-31T10:16:54;14.30;99.90
39847;DHT22;25517;52.422;10.782;2023-10-31T10:19:22;14.00;99.90
39847;DHT22;25517;52.422;10.782;2023-10-31T10:21:49;13.70;99.90
39847;DHT22;25517;52.422;10.782;2023-10-31T10:24:16;13.30;99.90
39847;DHT22;25517;52.422;10.782;2023-10-31T10:26:42;13.00;99.90
39847;DHT22;25517;52.422;10.782;2023-10-31T10:29:08;12.80;99.90
39847;DHT22;25517;52.422;10.782;2023-10-31T10:31:34;12.70;99.90
39847;DHT22;25517;52.422;10.782;2023-10-31T10:34:00;12.50;99.90
39847;DHT22;25517;52.422;10.782;2023-10-31T10:36:27;12.30;99.90
39847;DHT22;25517;52.422;10.782;2023-10-31T10:38:56;12.00;99.90
39847;DHT22;25517;52.422;10.782;2023-10-31T10:41:26;11.80;99.90
39847;DHT22;25517;52.422;10.782;2023-10-31T10:44:11;11.70;99.90
39847;DHT22;25517;52.422;10.782;2023-10-31T10:46:39;11.60;99.90
39847;DHT22;25517;52.422;10.782;2023-10-31T10:49:06;11.60;99.90
39847;DHT22;25517;52.422;10.782;2023-10-31T10:52:10;11.60;99.90
39847;DHT22;25517;52.422;10.782;2023-10-31T10:54:45;11.60;99.90
39847;DHT22;25517;52.422;10.782;2023-10-31T10:57:38;11.50;99.90
39847;DHT22;25517;52.422;10.782;2023-10-31T11:00:08;11.50;99.90
39847;DHT22;25517;52.422;10.782;2023-10-31T11:02:38;11.60;99.90
39847;DHT22;25517;52.422;10.782;2023-10-31T11:05:07;11.70;99.90
39847;DHT22;25517;52.422;10.782;2023-10-31T11:07:35;12.00;99.90
39847;DHT22;25517;52.422;10.782;2023-10-31T11:10:02;12.20;99.90
39847;DHT22;25517;52.422;10.782;2023-10-31T11:12:30;12.50;99.90
39847;DHT22;25517;52.422;10.782;2023-10-31T11:15:00;12.60;99.90
39847;DHT22;25517;52.422;10.782;2023-10-31T11:17:30;12.80;99.90
39847;DHT22;25517;52.422;10.782;2023-10-31T11:19:56;13.10;99.90
39847;DHT22;25517;52.422;10.782;2023-10-31T11:22:22;13.30;99.90
39847;DHT22;25517;52.422;10.782;2023-10-31T11:24:51;13.40;99.90
39847;DHT22;25517;52.422;10.782;2023-10-31T11:27:17;13.40;99.90
39847;DHT22;25517;52.422;10.782;2023-10-31T11:29:43;13.30;99.90
39847;DHT22;25517;52.422;10.782;2023-10-31T11:32:10;13.10;99.90
39847;DHT22;25517;52.422;10.782;2023-10-31T11:34:38;12.90;99.90
39847;DHT22;25517;52.422;10.782;2023-10-31T11:37:32;12.80;99.90
39847;DHT22;25517;52.422;10.782;2023-10-31T11:40:19;12.60;99.90
39847;DHT22;25517;52.422;10.782;2023-10-31T11:42:50;12.70;99.90
39847;DHT22;25517;52.422;10.782;2023-10-31T11:45:25;12.90;99.90
39847;DHT22;25517;52.422;10.782;2023-10-31T11:47:51;13.10;99.90
39847;DHT22;25517;52.422;10.782;2023-10-31T11:50:17;14.50;99.90
39847;DHT22;25517;52.422;10.782;2023-10-31T11:52:43;15.40;99.90
39847;DHT22;25517;52.422;10.782;2023-10-31T11:55:12;15.30;99.90
39847;DHT22;25517;52.422;10.782;2023-10-31T11:57:39;15.10;99.90
39847;DHT22;25517;52.422;10.782;2023-10-31T12:00:05;14.70;99.90
39847;DHT22;25517;52.422;10.782;2023-10-31T12:02:32;14.20;99.90
39847;DHT22;25517;52.422;10.782;2023-10-31T12:05:11;13.80;99.90
39847;DHT22;25517;52.422;10.782;2023-10-31T12:07:46;13.60;99.90
39847;DHT22;25517;52.422;10.782;2023-10-31T12:10:12;13.40;99.90
39847;DHT22;25517;52.422;10.782;2023-10-31T12:12:38;13.20;99.90
39847;DHT22;25517;52.422;10.782;2023-10-31T12:15:05;13.20;99.90
39847;DHT22;25517;52.422;10.782;2023-10-31T12:17:32;13.10;99.90
39847;DHT22;25517;52.422;10.782;2023-10-31T12:20:02;12.90;99.90
39847;DHT22;25517;52.422;10.782;2023-10-31T12:22:28;12.90;99.90
39847;DHT22;25517;52.422;10.782;2023-10-31T12:25:00;12.80;99.90
39847;DHT22;25517;52.422;10.782;2023-10-31T12:27:30;12.70;99.90
39847;DHT22;25517;52.422;10.782;2023-10-31T12:30:08;12.60;99.90
39847;DHT22;25517;52.422;10.782;2023-10-31T12:32:34;12.60;99.90
39847;DHT22;25517;52.422;10.782;2023-10-31T12:35:00;12.70;99.90
39847;DHT22;25517;52.422;10.782;2023-10-31T12:37:25;12.70;99.90
39847;DHT22;25517;52.422;10.782;2023-10-31T12:39:51;12.80;99.90
39847;DHT22;25517;52.422;10.782;2023-10-31T12:42:17;12.90;99.90
39847;DHT22;25517;52.422;10.782;2023-10-31T12:44:43;12.90;99.90
39847;DHT22;25517;52.422;10.782;2023-10-31T12:47:09;13.00;99.90
39847;DHT22;25517;52.422;10.782;2023-10-31T12:49:34;13.00;99.90
39847;DHT22;25517;52.422;10.782;2023-10-31T12:52:00;13.00;99.90
39847;DHT22;25517;52.422;10.782;2023-10-31T12:54:34;12.90;99.90
39847;DHT22;25517;52.422;10.782;2023-10-31T12:57:09;12.90;99.90
39847;DHT22;25517;52.422;10.782;2023-10-31T12:59:36;12.80;99.90
39847;DHT22;25517;52.422;10.782;2023-10-31T13:02:03;12.80;99.90
39847;DHT22;25517;52.422;10.782;2023-10-31T13:04:32;12.80;99.90
39847;DHT22;25517;52.422;10.782;2023-10-31T13:07:03;12.80;99.90
39847;DHT22;25517;52.422;10.782;2023-10-31T13:09:36;12.60;99.90
39847;DHT22;25517;52.422;10.782;2023-10-31T13:12:05;12.50;99.90
39847;DHT22;25517;52.422;10.782;2023-10-31T13:14:31;12.50;99.90
39847;DHT22;25517;52.422;10.782;2023-10-31T13:16:57;12.50;99.90
39847;DHT22;25517;52.422;10.782;2023-10-31T13:19:22;12.50;99.90
39847;DHT22;25517;52.422;10.782;2023-10-31T13:21:48;12.40;99.90
39847;DHT22;25517;52.422;10.782;2023-10-31T13:24:14;12.50;99.90
39847;DHT22;25517;52.422;10.782;2023-10-31T13:26:39;12.50;99.90
39847;DHT22;25517;52.422;10.782;2023-10-31T13:29:05;12.50;99.90
39847;DHT22;25517;52.422;10.782;2023-10-31T13:31:31;12.50;99.90
39847;DHT22;25517;52.422;10.782;2023-10-31T13:33:56;12.50;99.90
39847;DHT22;25517;52.422;10.782;2023-10-31T13:36:22;12.50;99.90
39847;DHT22;25517;52.422;10.782;2023-10-31T13:38:47;12.40;99.90
39847;DHT22;25517;52.422;10.782;2023-10-31T13:41:14;12.40;99.90
39847;DHT22;25517;52.422;10.782;2023-10-31T13:43:39;12.40;99.90
39847;DHT22;25517;52.422;10.782;2023-10-31T13:46:05;12.30;99.90
39847;DHT22;25517;52.422;10.782;2023-10-31T13:48:31;12.30;99.90
39847;DHT22;25517;52.422;10.782;2023-10-31T13:50:57;12.30;99.90
39847;DHT22;25517;52.422;10.782;2023-10-31T13:53:23;12.30;99.90
39847;DHT22;25517;52.422;10.782;2023-10-31T13:55:48;12.30;99.90
39847;DHT22;25517;52.422;10.782;2023-10-31T13:58:14;12.30;99.90
39847;DHT22;25517;52.422;10.782;2023-10-31T14:00:39;12.30;99.90
39847;DHT22;25517;52.422;10.782;2023-10-31T14:03:05;12.40;99.90
39847;DHT22;25517;52.422;10.782;2023-10-31T14:05:30;12.40;99.90
39847;DHT22;25517;52.422;10.782;2023-10-31T14:07:56;12.40;99.90
39847;DHT22;25517;52.422;10.782;2023-10-31T14:10:23;12.40;99.90
39847;DHT22;25517;52.422;10.782;2023-10-31T14:12:49;12.50;99.90
39847;DHT22;25517;52.422;10.782;2023-10-31T14:15:15;12.50;99.90
39847;DHT22;25517;52.422;10.782;2023-10-31T14:17:41;12.50;99.90
39847;DHT22;25517;52.422;10.782;2023-10-31T14:20:07;12.50;99.90
39847;DHT22;25517;52.422;10.782;2023-10-31T14:22:33;12.50;99.90
39847;DHT22;25517;52.422;10.782;2023-10-31T14:24:58;12.50;99.90
39847;DHT22;25517;52.422;10.782;2023-10-31T14:27:24;12.50;99.90
39847;DHT22;25517;52.422;10.782;2023-10-31T14:29:49;12.60;99.90
39847;DHT22;25517;52.422;10.782;2023-10-31T14:32:15;12.50;99.90
39847;DHT22;25517;52.422;10.782;2023-10-31T14:34:40;12.50;99.90
39847;DHT22;25517;52.422;10.782;2023-10-31T14:37:06;12.50;99.90
39847;DHT22;25517;52.422;10.782;2023-10-31T14:39:31;12.50;99.90
39847;DHT22;25517;52.422;10.782;2023-10-31T14:41:57;12.50;99.90
39847;DHT22;25517;52.422;10.782;2023-10-31T14:44:23;12.50;99.90
39847;DHT22;25517;52.422;10.782;2023-10-31T14:46:49;12.50;99.90
39847;DHT22;25517;52.422;10.782;2023-10-31T14:49:14;12.50;99.90
39847;DHT22;25517;52.422;10.782;2023-10-31T14:51:40;12.50;99.90
39847;DHT22;25517;52.422;10.782;2023-10-31T14:54:07;12.50;99.90
39847;DHT22;25517;52.422;10.782;2023-10-31T14:56:33;12.50;99.90
39847;DHT22;25517;52.422;10.782;2023-10-31T14:59:00;12.50;99.90
39847;DHT22;25517;52.422;10.782;2023-10-31T15:01:28;12.50;99.90
39847;DHT22;25517;52.422;10.782;2023-10-31T15:03:53;12.50;99.90
39847;DHT22;25517;52.422;10.782;2023-10-31T15:06:21;12.50;99.90
39847;DHT22;25517;52.422;10.782;2023-10-31T15:08:47;12.40;99.90
39847;DHT22;25517;52.422;10.782;2023-10-31T15:11:12;12.50;99.90